createdAt,value
2023-02-06T00:01:45.996Z,15.10
2023-02-06T00:04:15.336Z,15.67
2023-02-06T00:06:44.653Z,15.63
2023-02-06T00:09:13.497Z,15.83
2023-02-06T00:11:43.714Z,15.27
2023-02-06T00:14:12.630Z,16.27
2023-02-06T00:16:41.392Z,17.57
2023-02-06T00:19:10.089Z,16.90
2023-02-06T00:21:38.785Z,17.20
2023-02-06T00:24:07.842Z,17.33
2023-02-06T00:26:36.344Z,17.53
2023-02-06T00:29:06.460Z,17.00
2023-02-06T00:31:35.206Z,17.20
2023-02-06T00:34:05.238Z,17.20
2023-02-06T00:36:34.465Z,17.50
2023-02-06T00:39:03.112Z,17.27
2023-02-06T00:41:31.930Z,16.40
2023-02-06T00:44:07.954Z,17.23
2023-02-06T00:46:36.561Z,16.40
2023-02-06T00:49:05.084Z,16.30
2023-02-06T00:51:33.763Z,16.37
2023-02-06T00:54:02.253Z,15.47
2023-02-06T00:56:30.886Z,15.87
2023-02-06T00:58:59.410Z,15.83
2023-02-06T01:01:30.028Z,14.47
2023-02-06T01:03:58.570Z,15.80
2023-02-06T01:06:27.202Z,15.47
2023-02-06T01:08:55.700Z,14.77
2023-02-06T01:11:27.692Z,15.43
2023-02-06T01:13:56.236Z,15.10
2023-02-06T01:16:26.179Z,14.27
2023-02-06T01:18:56.327Z,13.57
2023-02-06T01:21:45.074Z,13.47
2023-02-06T01:24:13.811Z,14.40
2023-02-06T01:26:42.392Z,14.80
2023-02-06T01:29:10.967Z,13.97
2023-02-06T01:31:39.578Z,14.23
2023-02-06T01:34:12.505Z,14.70
2023-02-06T01:36:41.354Z,13.67
2023-02-06T01:39:11.486Z,14.70
2023-02-06T01:41:40.041Z,15.03
2023-02-06T01:44:15.762Z,15.10
2023-02-06T01:46:46.363Z,14.90
2023-02-06T01:49:20.855Z,14.60
2023-02-06T01:51:51.291Z,14.87
2023-02-06T01:54:20.246Z,15.00
2023-02-06T01:56:54.619Z,15.07
2023-02-06T01:59:24.256Z,15.33
2023-02-06T02:01:52.910Z,14.83
2023-02-06T02:04:26.836Z,14.73
2023-02-06T02:07:07.736Z,15.33
2023-02-06T02:09:36.628Z,14.03
2023-02-06T02:12:05.994Z,14.50
2023-02-06T02:14:34.920Z,13.90
2023-02-06T02:17:15.283Z,13.77
2023-02-06T02:20:25.787Z,14.30
2023-02-06T02:23:07.344Z,13.93
2023-02-06T02:26:15.684Z,13.23
2023-02-06T02:29:13.783Z,14.27
2023-02-06T02:32:23.703Z,13.73
2023-02-06T02:35:22.095Z,13.90
2023-02-06T02:38:01.312Z,13.13
2023-02-06T02:40:39.478Z,13.73
2023-02-06T02:43:19.264Z,13.83
2023-02-06T02:45:54.398Z,12.83
2023-02-06T02:48:26.989Z,13.53
2023-02-06T02:50:59.372Z,14.27
2023-02-06T02:53:28.233Z,14.50
2023-02-06T02:55:57.590Z,14.27
2023-02-06T02:58:30.966Z,14.10
2023-02-06T03:01:03.789Z,14.33
2023-02-06T03:03:38.873Z,13.90
2023-02-06T03:06:36.364Z,14.33
2023-02-06T03:09:12.931Z,12.53
2023-02-06T03:11:45.610Z,12.83
2023-02-06T03:14:20.295Z,12.90
2023-02-06T03:16:53.190Z,12.30
2023-02-06T03:19:25.305Z,11.17
2023-02-06T03:21:55.454Z,11.17
2023-02-06T03:24:27.999Z,10.73
2023-02-06T03:27:00.764Z,11.37
2023-02-06T03:29:30.802Z,11.70
2023-02-06T03:32:03.591Z,10.90
2023-02-06T03:34:39.597Z,11.33
2023-02-06T03:37:10.312Z,11.37
2023-02-06T03:39:39.143Z,11.10
2023-02-06T03:42:09.996Z,11.47
2023-02-06T03:44:43.234Z,11.30
2023-02-06T03:47:13.069Z,11.27
2023-02-06T03:49:44.775Z,10.93
2023-02-06T03:52:19.173Z,11.20
2023-02-06T03:54:54.406Z,10.50
2023-02-06T03:57:24.935Z,10.57
2023-02-06T03:59:53.633Z,10.43
2023-02-06T04:02:24.591Z,10.93
2023-02-06T04:04:53.867Z,10.67
2023-02-06T04:07:26.363Z,11.27
2023-02-06T04:09:55.111Z,11.00
2023-02-06T04:12:24.379Z,11.07
2023-02-06T04:14:53.610Z,10.90
2023-02-06T04:17:40.525Z,10.30
2023-02-06T04:20:10.739Z,10.77
2023-02-06T04:22:42.162Z,11.50
2023-02-06T04:25:10.822Z,10.93
2023-02-06T04:27:39.997Z,10.37
2023-02-06T04:30:10.090Z,10.37
2023-02-06T04:32:38.864Z,10.90
2023-02-06T04:35:07.677Z,11.13
2023-02-06T04:37:36.609Z,12.20
2023-02-06T04:40:07.795Z,11.93
2023-02-06T04:42:36.585Z,11.93
2023-02-06T04:45:05.681Z,11.03
2023-02-06T04:47:34.377Z,10.47
2023-02-06T04:50:03.046Z,10.63
2023-02-06T04:52:31.662Z,10.83
2023-02-06T04:55:00.304Z,11.13
2023-02-06T04:57:30.379Z,10.57
2023-02-06T04:59:59.183Z,11.17
2023-02-06T05:02:27.916Z,10.63
2023-02-06T05:04:56.618Z,11.27
2023-02-06T05:07:25.207Z,10.90
2023-02-06T05:09:53.897Z,11.37
2023-02-06T05:12:22.635Z,11.07
2023-02-06T05:14:52.583Z,11.20
2023-02-06T05:17:21.158Z,10.97
2023-02-06T05:19:49.656Z,11.37
2023-02-06T05:22:18.337Z,11.30
2023-02-06T05:24:46.868Z,11.60
2023-02-06T05:27:15.560Z,11.00
2023-02-06T05:29:44.096Z,9.50
2023-02-06T05:32:14.190Z,10.70
2023-02-06T05:34:42.830Z,9.87
2023-02-06T05:37:11.434Z,9.93
2023-02-06T05:39:40.103Z,10.03
2023-02-06T05:42:08.722Z,9.87
2023-02-06T05:44:37.411Z,9.53
2023-02-06T05:47:06.189Z,10.03
2023-02-06T05:49:36.379Z,10.47
2023-02-06T05:52:05.175Z,9.67
2023-02-06T05:54:33.831Z,10.67
2023-02-06T05:57:02.545Z,10.73
2023-02-06T05:59:31.095Z,10.50
2023-02-06T06:01:59.925Z,9.47
2023-02-06T06:04:28.983Z,9.83
2023-02-06T06:06:59.210Z,10.40
2023-02-06T06:09:28.065Z,10.30
2023-02-06T06:11:56.708Z,11.23
2023-02-06T06:14:25.437Z,10.97
2023-02-06T06:16:54.069Z,10.40
2023-02-06T06:19:22.855Z,12.00
2023-02-06T06:21:51.777Z,13.23
2023-02-06T06:24:21.948Z,12.50
2023-02-06T06:26:50.718Z,12.87
2023-02-06T06:29:22.595Z,12.73
2023-02-06T06:31:51.283Z,12.97
2023-02-06T06:34:19.918Z,12.63
2023-02-06T06:36:48.670Z,11.80
2023-02-06T06:39:17.524Z,11.60
2023-02-06T06:41:47.944Z,11.13
2023-02-06T06:44:16.544Z,10.23
2023-02-06T06:46:45.303Z,10.70
2023-02-06T06:49:14.035Z,11.70
2023-02-06T06:51:43.029Z,11.23
2023-02-06T06:54:11.717Z,11.17
2023-02-06T06:56:40.586Z,12.07
2023-02-06T06:59:10.822Z,12.03
2023-02-06T07:01:39.526Z,13.00
2023-02-06T07:04:08.220Z,12.97
2023-02-06T07:06:36.811Z,13.53
2023-02-06T07:09:05.573Z,14.60
2023-02-06T07:11:34.194Z,13.63
2023-02-06T07:14:02.889Z,14.57
2023-02-06T07:16:33.219Z,14.27
2023-02-06T07:19:02.003Z,15.07
2023-02-06T07:21:30.644Z,15.57
2023-02-06T07:23:59.505Z,15.10
2023-02-06T07:26:28.303Z,15.53
2023-02-06T07:28:56.914Z,14.97
2023-02-06T07:31:25.618Z,14.43
2023-02-06T07:34:03.220Z,14.40
2023-02-06T07:36:32.209Z,14.67
2023-02-06T07:39:03.044Z,14.77
2023-02-06T07:41:31.715Z,14.57
2023-02-06T07:44:00.311Z,14.67
2023-02-06T07:46:29.047Z,15.93
2023-02-06T07:48:57.815Z,16.90
2023-02-06T07:51:28.034Z,16.47
2023-02-06T07:53:56.936Z,18.00
2023-02-06T07:56:25.785Z,17.63
2023-02-06T07:58:57.837Z,13.87
2023-02-06T08:01:28.520Z,13.23
2023-02-06T08:03:57.382Z,13.23
2023-02-06T08:06:28.331Z,12.63
2023-02-06T08:08:58.234Z,13.80
2023-02-06T08:11:30.202Z,14.57
2023-02-06T08:13:59.115Z,13.73
2023-02-06T08:16:27.809Z,14.37
2023-02-06T08:18:56.429Z,15.70
2023-02-06T08:21:27.410Z,14.73
2023-02-06T08:23:57.622Z,15.80
2023-02-06T08:26:31.389Z,15.97
2023-02-06T08:29:03.913Z,15.37
2023-02-06T08:31:35.032Z,17.20
2023-02-06T08:34:04.077Z,15.47
2023-02-06T08:36:34.739Z,15.90
2023-02-06T08:39:04.373Z,15.37
2023-02-06T08:41:37.184Z,15.50
2023-02-06T08:44:07.641Z,14.53
2023-02-06T08:46:36.650Z,14.17
2023-02-06T08:49:07.798Z,15.23
2023-02-06T08:51:38.216Z,15.40
2023-02-06T08:54:09.204Z,14.10
2023-02-06T08:56:38.662Z,14.63
2023-02-06T08:59:08.625Z,13.77
2023-02-06T09:01:39.178Z,14.90
2023-02-06T09:04:19.589Z,14.53
2023-02-06T09:06:50.357Z,14.47
2023-02-06T09:09:20.186Z,13.97
2023-02-06T09:11:49.411Z,14.20
2023-02-06T09:14:19.480Z,14.67
2023-02-06T09:16:52.463Z,14.60
2023-02-06T09:19:23.667Z,15.03
2023-02-06T09:21:54.066Z,14.57
2023-02-06T09:24:22.988Z,14.57
2023-02-06T09:26:59.771Z,14.30
2023-02-06T09:29:32.089Z,15.20
2023-02-06T09:32:01.640Z,15.20
2023-02-06T09:34:30.919Z,15.73
2023-02-06T09:37:03.729Z,16.60
2023-02-06T09:39:32.713Z,16.23
2023-02-06T09:42:06.335Z,14.83
2023-02-06T09:44:42.018Z,14.23
2023-02-06T09:47:19.679Z,14.80
2023-02-06T09:49:51.418Z,15.43
2023-02-06T09:52:43.091Z,15.80
2023-02-06T09:55:20.024Z,14.77
2023-02-06T09:57:57.353Z,14.47
2023-02-06T10:00:40.108Z,15.20
2023-02-06T10:03:41.420Z,14.80
2023-02-06T10:06:22.227Z,14.37
2023-02-06T10:09:01.789Z,13.87
2023-02-06T10:11:40.522Z,13.87
2023-02-06T10:14:19.211Z,14.37
2023-02-06T10:16:55.367Z,14.60
2023-02-06T10:19:41.137Z,14.07
2023-02-06T10:22:16.768Z,14.57
2023-02-06T10:24:52.770Z,13.90
2023-02-06T10:27:23.384Z,13.70
2023-02-06T10:29:52.484Z,13.37
2023-02-06T10:32:32.433Z,14.07
2023-02-06T10:35:15.165Z,15.33
2023-02-06T10:38:16.651Z,15.43
2023-02-06T10:40:54.569Z,14.43
2023-02-06T10:43:34.980Z,15.37
2023-02-06T10:46:19.953Z,14.97
2023-02-06T10:48:58.962Z,15.37
2023-02-06T10:51:32.802Z,15.33
2023-02-06T10:54:12.523Z,14.37
2023-02-06T10:56:45.622Z,12.50
2023-02-06T10:59:22.548Z,13.20
2023-02-06T11:01:58.163Z,13.30
2023-02-06T11:04:35.488Z,13.13
2023-02-06T11:07:25.162Z,12.73
2023-02-06T11:09:54.698Z,12.40
2023-02-06T11:12:47.701Z,12.80
2023-02-06T11:15:35.718Z,11.80
2023-02-06T11:18:19.812Z,11.77
2023-02-06T11:20:55.526Z,12.40
2023-02-06T11:31:20.989Z,10.70
2023-02-06T11:33:52.731Z,11.57
2023-02-06T11:36:30.679Z,10.87
2023-02-06T11:39:04.571Z,10.97
2023-02-06T11:41:34.324Z,11.13
2023-02-06T11:44:06.826Z,11.70
2023-02-06T11:46:46.324Z,11.20
2023-02-06T11:49:31.400Z,11.33
2023-02-06T11:52:03.950Z,11.13
2023-02-06T11:54:35.585Z,11.27
2023-02-06T11:57:08.206Z,11.20
2023-02-06T11:59:50.794Z,11.57
2023-02-06T12:02:30.583Z,10.77
2023-02-06T12:05:05.980Z,10.90
2023-02-06T12:07:39.223Z,11.07
2023-02-06T12:10:15.169Z,12.10
2023-02-06T12:12:47.170Z,10.17
2023-02-06T12:15:43.525Z,10.77
2023-02-06T12:18:16.090Z,9.77
2023-02-06T12:20:50.389Z,9.87
2023-02-06T12:23:25.838Z,9.37
2023-02-06T12:25:58.403Z,8.87
2023-02-06T12:28:31.837Z,9.13
2023-02-06T12:31:06.020Z,9.50
2023-02-06T12:33:41.082Z,9.50
2023-02-06T12:36:18.838Z,9.10
2023-02-06T12:38:54.151Z,10.50
2023-02-06T12:41:49.689Z,8.90
2023-02-06T12:44:28.246Z,8.53
2023-02-06T12:47:03.936Z,9.23
2023-02-06T12:49:40.335Z,8.67
2023-02-06T12:52:18.410Z,8.80
2023-02-06T12:54:52.644Z,9.27
2023-02-06T12:57:25.063Z,9.63
2023-02-06T13:00:19.161Z,9.00
2023-02-06T13:03:14.152Z,9.53
2023-02-06T13:05:46.882Z,8.77
2023-02-06T13:08:19.805Z,9.27
2023-02-06T13:10:59.698Z,9.33
2023-02-06T13:13:31.590Z,9.63
2023-02-06T13:16:01.860Z,10.17
2023-02-06T13:18:55.393Z,9.67
2023-02-06T13:21:28.798Z,9.47
2023-02-06T13:24:20.993Z,9.93
2023-02-06T13:27:20.456Z,9.27
2023-02-06T13:29:51.637Z,9.33
2023-02-06T13:32:43.547Z,9.63
2023-02-06T13:35:31.952Z,9.17
2023-02-06T13:38:28.911Z,8.90
2023-02-06T13:41:20.778Z,9.70
2023-02-06T13:43:57.904Z,10.10
2023-02-06T13:46:48.155Z,9.57
2023-02-06T13:49:43.268Z,9.97
2023-02-06T13:52:21.256Z,9.33
2023-02-06T13:55:03.296Z,9.53
2023-02-06T13:57:42.716Z,9.67
2023-02-06T14:00:16.808Z,9.90
2023-02-06T14:02:48.814Z,9.97
2023-02-06T14:05:22.186Z,9.03
2023-02-06T14:08:09.622Z,8.73
2023-02-06T14:11:06.976Z,8.87
2023-02-06T14:13:49.418Z,8.57
2023-02-06T14:16:30.032Z,8.70
2023-02-06T14:19:04.464Z,9.30
2023-02-06T14:21:40.340Z,9.07
2023-02-06T14:24:30.379Z,8.73
2023-02-06T14:27:13.877Z,8.97
2023-02-06T14:29:52.912Z,9.20
2023-02-06T14:32:33.932Z,9.07
2023-02-06T14:35:21.274Z,9.40
2023-02-06T14:38:12.616Z,9.37
2023-02-06T14:40:45.288Z,9.60
2023-02-06T14:43:17.918Z,8.87
2023-02-06T14:46:05.472Z,8.80
2023-02-06T14:48:40.038Z,8.30
2023-02-06T14:51:18.739Z,8.17
2023-02-06T14:53:54.271Z,8.93
2023-02-06T14:56:30.278Z,8.53
2023-02-06T14:59:16.362Z,7.87
2023-02-06T15:01:48.419Z,8.07
2023-02-06T15:04:19.964Z,7.80
2023-02-06T15:06:53.834Z,8.60
2023-02-06T15:09:28.794Z,8.70
2023-02-06T15:12:02.841Z,8.80
2023-02-06T15:14:35.189Z,9.03
2023-02-06T15:17:03.811Z,9.60
2023-02-06T15:19:35.739Z,9.50
2023-02-06T15:22:07.320Z,9.33
2023-02-06T15:24:49.593Z,9.10
2023-02-06T15:27:28.588Z,8.93
2023-02-06T15:29:58.775Z,9.80
2023-02-06T15:32:30.713Z,9.70
2023-02-06T15:35:03.244Z,9.97
2023-02-06T15:37:40.182Z,9.53
2023-02-06T15:40:19.175Z,9.17
2023-02-06T15:43:03.269Z,10.07
2023-02-06T15:45:36.118Z,10.17
2023-02-06T15:48:21.420Z,10.70
2023-02-06T15:51:02.697Z,10.30
2023-02-06T15:53:39.322Z,10.50
2023-02-06T15:56:23.469Z,10.50
2023-02-06T15:58:59.592Z,10.60
2023-02-06T16:01:31.864Z,10.67
2023-02-06T16:04:04.669Z,9.50
2023-02-06T16:06:37.659Z,10.20
2023-02-06T16:09:08.608Z,10.47
2023-02-06T16:11:50.762Z,9.73
2023-02-06T16:14:30.636Z,9.67
2023-02-06T16:17:05.854Z,9.60
2023-02-06T16:19:52.477Z,9.50
2023-02-06T16:22:27.622Z,9.27
2023-02-06T16:25:13.132Z,9.60
2023-02-06T16:27:46.678Z,8.97
2023-02-06T16:30:26.667Z,10.33
2023-02-06T16:32:57.017Z,9.97
2023-02-06T16:35:26.714Z,9.70
2023-02-06T16:37:56.271Z,10.17
2023-02-06T16:40:26.325Z,9.10
2023-02-06T16:42:55.186Z,9.57
2023-02-06T16:45:27.701Z,8.57
2023-02-06T16:47:57.317Z,8.40
2023-02-06T16:50:25.999Z,8.63
2023-02-06T16:52:58.304Z,8.73
2023-02-06T16:55:29.053Z,8.07
2023-02-06T16:58:01.840Z,8.50
2023-02-06T17:00:34.020Z,7.90
2023-02-06T17:03:02.796Z,8.07
2023-02-06T17:05:33.357Z,7.90
2023-02-06T17:08:04.194Z,8.63
2023-02-06T17:10:33.231Z,7.13
2023-02-06T17:13:02.076Z,6.40
2023-02-06T17:15:32.603Z,7.47
2023-02-06T17:18:02.154Z,6.13
2023-02-06T17:20:32.827Z,6.30
2023-02-06T17:23:04.496Z,6.50
2023-02-06T17:25:33.629Z,6.27
2023-02-06T17:28:02.716Z,6.70
2023-02-06T17:30:33.166Z,6.07
2023-02-06T17:33:53.777Z,6.20
2023-02-06T17:36:32.452Z,6.30
2023-02-06T17:39:02.615Z,5.80
2023-02-06T17:41:31.718Z,6.20
2023-02-06T17:44:00.583Z,6.40
2023-02-06T17:46:30.991Z,6.20
2023-02-06T17:48:59.892Z,5.70
2023-02-06T17:51:28.838Z,6.20
2023-02-06T17:53:57.775Z,6.27
2023-02-06T17:56:27.419Z,5.43
2023-02-06T17:58:56.396Z,5.27
2023-02-06T18:01:32.242Z,5.03
2023-02-06T18:04:07.687Z,5.47
2023-02-06T18:06:37.362Z,5.20
2023-02-06T18:09:33.411Z,5.40
2023-02-06T18:12:02.524Z,5.27
2023-02-06T18:14:31.739Z,5.57
2023-02-06T18:17:03.754Z,5.43
2023-02-06T18:19:40.695Z,5.47
2023-02-06T18:22:10.151Z,5.57
2023-02-06T18:24:39.177Z,5.80
2023-02-06T18:27:12.509Z,6.07
2023-02-06T18:29:49.749Z,6.10
2023-02-06T18:32:21.121Z,6.10
2023-02-06T18:34:50.091Z,6.50
2023-02-06T18:37:19.015Z,6.27
2023-02-06T18:39:48.089Z,6.33
2023-02-06T18:46:30.331Z,5.97
2023-02-06T18:49:02.238Z,5.87
2023-02-06T18:51:31.322Z,6.33
2023-02-06T18:54:00.641Z,6.27
2023-02-06T18:56:29.391Z,5.90
2023-02-06T18:58:58.064Z,5.90
2023-02-06T19:01:27.398Z,6.00
2023-02-06T19:03:56.033Z,5.57
2023-02-06T19:06:31.939Z,6.43
2023-02-06T19:09:26.370Z,6.00
2023-02-06T19:11:54.971Z,6.03
2023-02-06T19:14:25.526Z,6.30
2023-02-06T19:16:55.120Z,6.20
2023-02-06T19:19:23.681Z,7.00
2023-02-06T19:21:53.949Z,6.83
2023-02-06T19:24:23.441Z,6.90
2023-02-06T19:26:51.987Z,7.20
2023-02-06T19:29:34.785Z,7.07
2023-02-06T19:32:05.050Z,6.87
2023-02-06T19:34:36.296Z,6.87
2023-02-06T19:37:07.993Z,6.63
2023-02-06T19:39:40.329Z,5.90
2023-02-06T19:42:11.198Z,5.70
2023-02-06T19:44:40.049Z,5.97
2023-02-06T19:47:08.921Z,6.17
2023-02-06T19:49:37.781Z,6.00
2023-02-06T19:52:09.711Z,5.77
2023-02-06T19:54:38.446Z,5.90
2023-02-06T19:58:21.936Z,6.30
2023-02-06T20:00:51.047Z,6.03
2023-02-06T20:03:19.822Z,6.17
2023-02-06T20:05:48.699Z,5.87
2023-02-06T20:08:19.289Z,5.73
2023-02-06T20:10:48.383Z,5.40
2023-02-06T20:13:17.161Z,5.40
2023-02-06T20:15:45.860Z,5.23
2023-02-06T20:18:14.581Z,5.33
2023-02-06T20:21:42.632Z,5.13
2023-02-06T20:24:15.304Z,4.87
2023-02-06T20:27:13.295Z,5.07
2023-02-06T20:29:43.503Z,5.40
2023-02-06T20:33:07.485Z,5.40
2023-02-06T20:35:40.024Z,5.97
2023-02-06T20:38:09.217Z,5.50
2023-02-06T20:40:43.754Z,5.30
2023-02-06T20:43:12.515Z,5.10
2023-02-06T20:45:41.260Z,6.10
2023-02-06T20:48:09.994Z,5.27
2023-02-06T20:50:39.028Z,6.47
2023-02-06T20:53:09.073Z,5.70
2023-02-06T20:55:44.271Z,5.40
2023-02-06T20:58:12.912Z,5.37
2023-02-06T21:00:41.881Z,5.87
2023-02-06T21:03:10.721Z,6.40
2023-02-06T21:06:05.131Z,5.60
2023-02-06T21:08:34.767Z,6.13
2023-02-06T21:11:05.738Z,5.90
2023-02-06T21:13:34.748Z,6.97
2023-02-06T21:16:05.627Z,6.77
2023-02-06T21:18:35.472Z,6.53
2023-02-06T21:21:09.571Z,6.93
2023-02-06T21:23:38.797Z,6.90
2023-02-06T21:26:10.359Z,7.80
2023-02-06T21:28:39.660Z,7.43
2023-02-06T21:31:10.708Z,8.57
2023-02-06T21:33:39.493Z,8.67
2023-02-06T21:36:08.879Z,7.47
2023-02-06T21:38:38.330Z,8.70
2023-02-06T21:41:09.526Z,7.47
2023-02-06T21:43:38.513Z,8.47
2023-02-06T21:46:07.334Z,9.00
2023-02-06T21:48:36.910Z,9.20
2023-02-06T21:51:09.812Z,9.50
2023-02-06T21:53:38.597Z,8.83
2023-02-06T21:56:10.220Z,9.50
2023-02-06T21:58:38.944Z,10.27
2023-02-06T22:01:09.078Z,10.13
2023-02-06T22:03:37.808Z,9.90
2023-02-06T22:06:08.478Z,10.10
2023-02-06T22:08:37.409Z,9.90
2023-02-06T22:11:14.626Z,9.57
2023-02-06T22:13:44.287Z,10.10
2023-02-06T22:16:14.726Z,9.80
2023-02-06T22:18:43.847Z,10.20
2023-02-06T22:21:14.602Z,10.50
2023-02-06T22:23:44.276Z,9.93
2023-02-06T22:26:16.843Z,10.20
2023-02-06T22:28:48.212Z,10.10
2023-02-06T22:31:20.199Z,10.33
2023-02-06T22:33:49.305Z,10.93
2023-02-06T22:36:20.427Z,10.80
2023-02-06T22:38:53.638Z,10.80
2023-02-06T22:41:23.901Z,10.50
2023-02-06T22:43:53.177Z,10.50
2023-02-06T22:46:25.653Z,10.27
2023-02-06T22:48:54.920Z,11.17
2023-02-06T22:51:24.493Z,9.90
2023-02-06T22:53:53.574Z,11.40
2023-02-06T22:56:31.562Z,11.40
2023-02-06T22:59:02.592Z,10.93
2023-02-06T23:01:33.307Z,11.70
2023-02-06T23:04:03.884Z,11.37
2023-02-06T23:06:34.468Z,12.07
2023-02-06T23:09:05.298Z,12.03
2023-02-06T23:11:37.026Z,12.40
2023-02-06T23:14:07.335Z,12.53
2023-02-06T23:16:36.929Z,12.17
2023-02-06T23:19:07.517Z,12.27
2023-02-06T23:21:39.565Z,12.37
2023-02-06T23:24:10.598Z,13.17
2023-02-06T23:26:43.203Z,12.07
2023-02-06T23:29:15.873Z,13.17
2023-02-06T23:31:44.853Z,12.77
2023-02-06T23:34:14.058Z,13.57
2023-02-06T23:36:42.757Z,13.03
2023-02-06T23:39:12.133Z,13.23
2023-02-06T23:41:42.445Z,14.17
2023-02-06T23:44:12.754Z,13.70
2023-02-06T23:46:42.341Z,13.60
2023-02-06T23:49:11.395Z,13.97
2023-02-06T23:51:40.226Z,13.73
2023-02-06T23:54:10.046Z,14.00
2023-02-06T23:56:38.888Z,13.70
2023-02-06T23:59:09.055Z,13.93
